Time;durP1;ratioP1;P1;durP2;ratioP2;P2;SDS_P1;SDS_P2;PMS_P1;PMS_P2;Temp;Humidity;BMP_temperature;BMP_pressure;BME280_temperature;BME280_humidity;BME280_pressure;Samples;Min_cycle;Max_cycle;Signal;HPM_P1;HPM_P2
2023/12/24 00:03:23;;;;;;;6.60;2.80;;;;;;;;;;103563;1295;545937;-74
2023/12/24 00:07:00;;;;;;;5.50;2.10;;;;;;;;;;104075;1292;544984;-74
2023/12/24 00:10:38;;;;;;;5.80;2.20;;;;;;;;;;103587;1291;545992;-75
2023/12/24 00:14:15;;;;;;;5.20;2.10;;;;;;;;;;103575;1298;544901;-74
2023/12/24 00:17:52;;;;;;;5.50;1.90;;;;;;;;;;103763;1291;544784;-75
2023/12/24 00:21:30;;;;;;;3.80;1.20;;;;;;;;;;103496;1291;544941;-73
2023/12/24 00:25:27;;;;;;;4.60;1.20;;;;;;;;;;103656;1292;545243;-74
2023/12/24 00:28:47;;;;;;;5.20;1.70;;;;;;;;;;103650;1292;544902;-73
2023/12/24 00:32:42;;;;;;;6.30;1.90;;;;;;;;;;103684;1293;546667;-73
2023/12/24 00:36:20;;;;;;;3.30;1.20;;;;;;;;;;103781;1289;548154;-73
2023/12/24 00:39:38;;;;;;;3.90;1.10;;;;;;;;;;103605;1292;544834;-73
2023/12/24 00:43:15;;;;;;;3.80;1.20;;;;;;;;;;103525;1294;545199;-73
2023/12/24 00:46:53;;;;;;;3.50;1.10;;;;;;;;;;104672;1287;545070;-73
2023/12/24 00:50:30;;;;;;;3.80;1.20;;;;;;;;;;103472;1294;545957;-73
2023/12/24 00:54:08;;;;;;;1.90;0.90;;;;;;;;;;103553;1296;544824;-72
2023/12/24 00:57:45;;;;;;;2.80;1.00;;;;;;;;;;103719;1295;545853;-73
2023/12/24 01:01:22;;;;;;;3.30;0.90;;;;;;;;;;103560;1292;545214;-73
2023/12/24 01:05:00;;;;;;;4.60;0.80;;;;;;;;;;103688;1295;545014;-73
2023/12/24 01:08:33;;;;;;;2.10;0.60;;;;;;;;;;104398;1292;544874;-73
2023/12/24 01:12:15;;;;;;;2.00;0.60;;;;;;;;;;103854;1289;545066;-73
2023/12/24 01:15:52;;;;;;;4.90;1.70;;;;;;;;;;104386;1286;544814;-73
2023/12/24 01:19:31;;;;;;;7.90;3.20;;;;;;;;;;103652;1292;546937;-73
2023/12/24 01:23:07;;;;;;;4.40;1.90;;;;;;;;;;103592;1295;545108;-73
2023/12/24 01:26:45;;;;;;;4.90;2.20;;;;;;;;;;103856;1290;545022;-74
2023/12/24 01:30:22;;;;;;;6.50;3.10;;;;;;;;;;103537;1292;544967;-74
2023/12/24 01:34:00;;;;;;;10.80;6.40;;;;;;;;;;103881;1289;544922;-74
2023/12/24 01:37:37;;;;;;;10.40;5.90;;;;;;;;;;103661;1292;544844;-74
2023/12/24 01:41:15;;;;;;;7.70;3.80;;;;;;;;;;103831;1288;545969;-74
2023/12/24 01:44:51;;;;;;;6.40;3.20;;;;;;;;;;103960;1288;545011;-74
2023/12/24 01:48:30;;;;;;;10.00;5.90;;;;;;;;;;103585;1295;545101;-73
2023/12/24 01:52:07;;;;;;;7.10;3.60;;;;;;;;;;103594;1291;545177;-73
2023/12/24 01:55:47;;;;;;;7.40;3.70;;;;;;;;;;103883;1289;545567;-73
2023/12/24 01:59:22;;;;;;;7.70;3.70;;;;;;;;;;103985;1286;544893;-73
2023/12/24 02:03:00;;;;;;;6.70;3.10;;;;;;;;;;103555;1298;544922;-73
2023/12/24 02:06:37;;;;;;;7.00;3.60;;;;;;;;;;103697;1291;545096;-73
2023/12/24 02:10:14;;;;;;;7.30;3.80;;;;;;;;;;103605;1292;545077;-74
2023/12/24 02:13:52;;;;;;;6.60;3.30;;;;;;;;;;103683;1302;545065;-74
2023/12/24 02:17:30;;;;;;;6.30;3.00;;;;;;;;;;103627;1292;546438;-73
2023/12/24 02:21:06;;;;;;;5.30;2.40;;;;;;;;;;103648;1292;545381;-74
2023/12/24 02:24:44;;;;;;;5.60;2.60;;;;;;;;;;103944;1291;544915;-74
2023/12/24 02:28:24;;;;;;;5.60;2.80;;;;;;;;;;103640;1292;545158;-74
2023/12/24 02:32:01;;;;;;;5.60;2.30;;;;;;;;;;103868;1289;544905;-74
2023/12/24 02:35:42;;;;;;;9.10;4.10;;;;;;;;;;103827;1291;545655;-74
2023/12/24 02:39:19;;;;;;;17.00;7.40;;;;;;;;;;103656;1295;545087;-74
2023/12/24 02:42:56;;;;;;;18.10;8.70;;;;;;;;;;104634;1282;544837;-74
2023/12/24 02:46:34;;;;;;;21.20;9.50;;;;;;;;;;103675;1292;544720;-74
2023/12/24 02:50:11;;;;;;;20.80;9.00;;;;;;;;;;103825;1289;545001;-75
2023/12/24 02:53:48;;;;;;;15.10;6.20;;;;;;;;;;103562;1292;544888;-75
2023/12/24 02:57:26;;;;;;;13.20;6.20;;;;;;;;;;103872;1289;545915;-75
2023/12/24 03:01:04;;;;;;;10.50;4.90;;;;;;;;;;103877;1289;545140;-74
2023/12/24 03:04:41;;;;;;;11.20;5.20;;;;;;;;;;103744;1290;545890;-75
2023/12/24 03:08:19;;;;;;;10.60;4.80;;;;;;;;;;103620;1291;545056;-74
2023/12/24 03:11:56;;;;;;;9.20;4.10;;;;;;;;;;103902;1293;545410;-74
2023/12/24 03:15:34;;;;;;;8.10;4.10;;;;;;;;;;103804;1289;544844;-74
2023/12/24 03:19:12;;;;;;;8.30;3.90;;;;;;;;;;103617;1305;544933;-74
2023/12/24 03:22:48;;;;;;;7.10;3.20;;;;;;;;;;103759;1292;545655;-75
2023/12/24 03:26:26;;;;;;;7.70;3.60;;;;;;;;;;103572;1292;544888;-75
2023/12/24 03:30:04;;;;;;;6.80;2.90;;;;;;;;;;103944;1288;544863;-74
2023/12/24 03:33:47;;;;;;;6.30;2.30;;;;;;;;;;103480;1293;545958;-74
2023/12/24 03:37:18;;;;;;;5.60;2.50;;;;;;;;;;104214;1288;545928;-74
2023/12/24 03:40:56;;;;;;;4.80;2.00;;;;;;;;;;104147;1285;544819;-74
2023/12/24 03:44:33;;;;;;;6.80;2.20;;;;;;;;;;103945;1289;544715;-74
2023/12/24 03:48:11;;;;;;;4.40;1.70;;;;;;;;;;103666;1295;545454;-74
2023/12/24 03:51:48;;;;;;;5.00;2.20;;;;;;;;;;103834;1289;545191;-74
2023/12/24 03:55:26;;;;;;;5.20;2.10;;;;;;;;;;103646;1292;545887;-74
2023/12/24 03:59:03;;;;;;;7.00;3.20;;;;;;;;;;103673;1292;545607;-74
2023/12/24 04:02:40;;;;;;;10.70;4.40;;;;;;;;;;103570;1291;544784;-74
2023/12/24 04:06:17;;;;;;;9.10;3.50;;;;;;;;;;103659;1291;545088;-74
2023/12/24 04:09:55;;;;;;;6.10;3.00;;;;;;;;;;104703;1280;544815;-74
2023/12/24 04:13:33;;;;;;;7.50;3.40;;;;;;;;;;103691;1290;545131;-75
2023/12/24 04:17:10;;;;;;;7.80;3.40;;;;;;;;;;103547;1292;544895;-74
2023/12/24 04:20:47;;;;;;;9.40;4.10;;;;;;;;;;104187;1286;545876;-74
2023/12/24 04:24:25;;;;;;;8.20;4.00;;;;;;;;;;103564;1292;545080;-74
2023/12/24 04:28:03;;;;;;;9.50;5.10;;;;;;;;;;103688;1295;545766;-75
2023/12/24 04:31:40;;;;;;;9.90;5.90;;;;;;;;;;104230;1285;544841;-74
2023/12/24 04:35:18;;;;;;;12.20;8.00;;;;;;;;;;103839;1289;545451;-75
2023/12/24 04:38:55;;;;;;;11.70;6.50;;;;;;;;;;103784;1293;545373;-73
2023/12/24 04:42:33;;;;;;;10.60;6.50;;;;;;;;;;103881;1295;544958;-73
2023/12/24 04:46:10;;;;;;;10.40;5.70;;;;;;;;;;103541;1292;545095;-74
2023/12/24 04:49:53;;;;;;;9.80;5.80;;;;;;;;;;103520;1292;545476;-75
2023/12/24 04:53:25;;;;;;;10.70;6.20;;;;;;;;;;104053;1289;544880;-74
2023/12/24 04:57:03;;;;;;;7.80;3.70;;;;;;;;;;103704;1291;544920;-75
2023/12/24 05:00:36;;;;;;;6.50;2.90;;;;;;;;;;103807;1291;545671;-76
2023/12/24 05:04:17;;;;;;;4.80;1.90;;;;;;;;;;103660;1292;545282;-76
2023/12/24 05:07:54;;;;;;;4.30;1.40;;;;;;;;;;103535;1298;545198;-75
2023/12/24 05:11:32;;;;;;;4.30;1.60;;;;;;;;;;103850;1292;545103;-76
2023/12/24 05:15:10;;;;;;;4.70;1.70;;;;;;;;;;103752;1289;545245;-76
2023/12/24 05:18:44;;;;;;;3.80;1.60;;;;;;;;;;103674;1295;545043;-76
2023/12/24 05:22:25;;;;;;;4.20;1.50;;;;;;;;;;103770;1292;545813;-75
2023/12/24 05:26:02;;;;;;;3.00;1.20;;;;;;;;;;103654;1291;545239;-75
2023/12/24 05:29:40;;;;;;;4.20;1.50;;;;;;;;;;103609;1295;545143;-75
2023/12/24 05:33:23;;;;;;;5.70;1.80;;;;;;;;;;103648;1292;545896;-76
2023/12/24 05:36:54;;;;;;;7.50;3.00;;;;;;;;;;103719;1294;544825;-73
2023/12/24 05:40:32;;;;;;;9.00;3.70;;;;;;;;;;104091;1289;546104;-75
2023/12/24 05:44:09;;;;;;;12.00;6.00;;;;;;;;;;103548;1295;545410;-74
2023/12/24 05:47:47;;;;;;;13.00;5.90;;;;;;;;;;103687;1294;544917;-80
2023/12/24 05:51:24;;;;;;;13.00;6.90;;;;;;;;;;104085;1289;544891;-74
2023/12/24 05:55:02;;;;;;;12.90;6.50;;;;;;;;;;103673;1292;545681;-76
2023/12/24 05:58:39;;;;;;;13.50;7.00;;;;;;;;;;103843;1295;545018;-77
2023/12/24 06:02:17;;;;;;;12.80;6.70;;;;;;;;;;103861;1292;545803;-76
2023/12/24 06:05:54;;;;;;;14.80;7.80;;;;;;;;;;103700;1298;544978;-76
2023/12/24 06:09:32;;;;;;;15.20;8.50;;;;;;;;;;104029;1291;544780;-76
2023/12/24 06:13:10;;;;;;;16.90;10.30;;;;;;;;;;103581;1292;545377;-75
2023/12/24 06:16:46;;;;;;;19.50;12.00;;;;;;;;;;103752;1293;545030;-76
2023/12/24 06:20:23;;;;;;;17.80;10.30;;;;;;;;;;104181;1286;544812;-74
2023/12/24 06:24:01;;;;;;;18.30;10.20;;;;;;;;;;103526;1292;545186;-74
2023/12/24 06:27:39;;;;;;;18.50;11.30;;;;;;;;;;103556;1294;545161;-75
2023/12/24 06:31:21;;;;;;;18.00;11.10;;;;;;;;;;103787;1291;545555;-74
2023/12/24 06:34:54;;;;;;;18.40;10.60;;;;;;;;;;103603;1292;545706;-74
2023/12/24 06:38:31;;;;;;;15.00;8.30;;;;;;;;;;103574;1295;545981;-74
2023/12/24 06:42:09;;;;;;;15.30;8.50;;;;;;;;;;103762;1289;545033;-73
2023/12/24 06:45:46;;;;;;;14.10;7.40;;;;;;;;;;103595;1292;544843;-76
2023/12/24 06:49:23;;;;;;;14.10;7.50;;;;;;;;;;103690;1292;545490;-74
2023/12/24 06:53:01;;;;;;;15.00;8.20;;;;;;;;;;103599;1295;545655;-73
2023/12/24 06:56:38;;;;;;;14.00;7.00;;;;;;;;;;104002;1291;545009;-74
2023/12/24 07:00:16;;;;;;;13.00;6.60;;;;;;;;;;103809;1289;545301;-73
2023/12/24 07:03:53;;;;;;;12.50;6.10;;;;;;;;;;103753;1295;545020;-73
2023/12/24 07:07:27;;;;;;;11.10;6.10;;;;;;;;;;104016;1302;546367;-74
2023/12/24 07:11:08;;;;;;;11.70;6.80;;;;;;;;;;104133;1286;545336;-74
2023/12/24 07:14:46;;;;;;;10.60;6.40;;;;;;;;;;104078;1288;545688;-74
2023/12/24 07:18:23;;;;;;;9.80;5.30;;;;;;;;;;103601;1292;546359;-74
2023/12/24 07:22:01;;;;;;;8.30;4.70;;;;;;;;;;103852;1290;545344;-75
2023/12/24 07:25:38;;;;;;;9.00;4.70;;;;;;;;;;103600;1292;545092;-74
2023/12/24 07:29:16;;;;;;;8.50;4.80;;;;;;;;;;104193;1286;545061;-75
2023/12/24 07:32:53;;;;;;;9.00;5.00;;;;;;;;;;103894;1289;545437;-75
2023/12/24 07:36:31;;;;;;;9.10;4.30;;;;;;;;;;103652;1292;545197;-75
2023/12/24 07:40:08;;;;;;;7.70;4.10;;;;;;;;;;104028;1289;545066;-75
2023/12/24 07:43:46;;;;;;;8.60;4.20;;;;;;;;;;103593;1292;545222;-76
2023/12/24 07:47:23;;;;;;;10.40;5.60;;;;;;;;;;103560;1292;545749;-76
2023/12/24 07:51:00;;;;;;;9.30;5.10;;;;;;;;;;104063;1289;545235;-76
2023/12/24 07:54:38;;;;;;;9.90;4.40;;;;;;;;;;103612;1292;544852;-77
2023/12/24 07:58:15;;;;;;;8.60;4.30;;;;;;;;;;103562;1295;545755;-77
2023/12/24 08:01:53;;;;;;;9.70;5.80;;;;;;;;;;103811;1292;545086;-76
2023/12/24 08:05:31;;;;;;;10.50;6.50;;;;;;;;;;103569;1292;545153;-77
2023/12/24 08:09:10;;;;;;;13.50;8.50;;;;;;;;;;103893;1289;545116;-77
2023/12/24 08:12:45;;;;;;;16.30;11.10;;;;;;;;;;104103;1289;545168;-77
2023/12/24 08:16:23;;;;;;;19.80;14.30;;;;;;;;;;103878;1294;545646;-77
2023/12/24 08:20:00;;;;;;;26.80;20.70;;;;;;;;;;104313;1288;545010;-76
2023/12/24 08:23:38;;;;;;;18.70;13.40;;;;;;;;;;103629;1297;544894;-77
2023/12/24 08:27:15;;;;;;;9.20;5.00;;;;;;;;;;104138;1286;545610;-72
2023/12/24 08:30:53;;;;;;;3.40;1.30;;;;;;;;;;103839;1289;545375;-75
2023/12/24 08:34:26;;;;;;;4.80;1.70;;;;;;;;;;103841;1291;546116;-74
2023/12/24 08:38:07;;;;;;;3.60;1.50;;;;;;;;;;103906;1302;545509;-72
2023/12/24 08:41:45;;;;;;;3.90;1.60;;;;;;;;;;104694;1283;545550;-71
2023/12/24 08:45:23;;;;;;;4.20;1.20;;;;;;;;;;103351;1293;545159;-71
2023/12/24 08:49:00;;;;;;;4.80;1.50;;;;;;;;;;103634;1289;545260;-71
2023/12/24 08:52:39;;;;;;;3.50;1.20;;;;;;;;;;103513;1298;545053;-70
2023/12/24 08:56:15;;;;;;;3.50;1.40;;;;;;;;;;103621;1295;545672;-70
2023/12/24 08:59:52;;;;;;;5.10;1.70;;;;;;;;;;103755;1292;545007;-72
2023/12/24 09:03:30;;;;;;;3.50;1.40;;;;;;;;;;103499;1295;545702;-69
2023/12/24 09:07:07;;;;;;;4.00;1.10;;;;;;;;;;103529;1298;545061;-70
2023/12/24 09:10:45;;;;;;;4.50;1.50;;;;;;;;;;103596;1289;545056;-71
2023/12/24 09:14:22;;;;;;;3.30;1.20;;;;;;;;;;103897;1289;544993;-71
2023/12/24 09:17:59;;;;;;;4.10;1.30;;;;;;;;;;103583;1295;545246;-71
2023/12/24 09:21:37;;;;;;;4.90;1.50;;;;;;;;;;103510;1291;545044;-72
2023/12/24 09:25:14;;;;;;;6.10;2.10;;;;;;;;;;103919;1288;544934;-70
2023/12/24 09:28:48;;;;;;;5.10;1.80;;;;;;;;;;103625;1295;544945;-71
2023/12/24 09:32:31;;;;;;;5.20;2.10;;;;;;;;;;103560;1291;545144;-70
2023/12/24 09:36:07;;;;;;;5.40;2.30;;;;;;;;;;103282;1297;544887;-68
2023/12/24 09:39:44;;;;;;;3.90;1.30;;;;;;;;;;103552;1292;545111;-69
2023/12/24 09:43:22;;;;;;;5.70;2.20;;;;;;;;;;103348;1294;545577;-68
2023/12/24 09:46:59;;;;;;;8.70;3.70;;;;;;;;;;103376;1297;545103;-67
2023/12/24 09:50:37;;;;;;;8.90;3.70;;;;;;;;;;103669;1303;545187;-72
2023/12/24 09:54:14;;;;;;;7.80;3.60;;;;;;;;;;103947;1292;545339;-68
2023/12/24 09:57:52;;;;;;;7.60;3.40;;;;;;;;;;103436;1298;544791;-69
2023/12/24 10:01:39;;;;;;;7.60;3.50;;;;;;;;;;104361;1282;545602;-68
2023/12/24 10:05:07;;;;;;;7.10;3.50;;;;;;;;;;103260;1295;545515;-72
2023/12/24 10:08:44;;;;;;;6.90;2.80;;;;;;;;;;103305;1294;545084;-74
2023/12/24 10:12:22;;;;;;;4.10;1.80;;;;;;;;;;103682;1289;544805;-72
2023/12/24 10:16:02;;;;;;;4.20;1.70;;;;;;;;;;104049;1289;545045;-72
2023/12/24 10:19:42;;;;;;;4.00;1.60;;;;;;;;;;103874;1288;545753;-70
2023/12/24 10:23:20;;;;;;;3.10;1.50;;;;;;;;;;103536;1291;545256;-71
2023/12/24 10:27:14;;;;;;;3.70;1.20;;;;;;;;;;103757;1288;545699;-69
2023/12/24 10:30:35;;;;;;;2.70;1.10;;;;;;;;;;103902;1287;545789;-71
2023/12/24 10:34:17;;;;;;;2.50;1.00;;;;;;;;;;103309;1294;545460;-70
2023/12/24 10:37:49;;;;;;;2.80;0.80;;;;;;;;;;103647;1294;545148;-70
2023/12/24 10:41:27;;;;;;;2.00;0.80;;;;;;;;;;103672;1292;545341;-73
2023/12/24 10:45:08;;;;;;;4.20;1.90;;;;;;;;;;103580;1295;545743;-69
2023/12/24 10:48:48;;;;;;;6.80;3.30;;;;;;;;;;103516;1289;545567;-70
2023/12/24 10:52:20;;;;;;;9.40;5.10;;;;;;;;;;104182;1286;544932;-71
2023/12/24 10:56:06;;;;;;;7.50;4.00;;;;;;;;;;103883;1293;545590;-72
2023/12/24 10:59:53;;;;;;;9.50;4.50;;;;;;;;;;104138;1289;544874;-70
2023/12/24 11:03:32;;;;;;;9.40;4.80;;;;;;;;;;103544;1292;544767;-70
2023/12/24 11:06:46;;;;;;;10.70;6.40;;;;;;;;;;103786;1289;545579;-70
2023/12/24 11:10:41;;;;;;;8.90;4.40;;;;;;;;;;104102;1291;545544;-68
2023/12/24 11:14:05;;;;;;;7.30;3.60;;;;;;;;;;103540;1293;545221;-71
2023/12/24 11:17:48;;;;;;;4.70;2.20;;;;;;;;;;103582;1293;545662;-71
2023/12/24 11:21:19;;;;;;;5.80;2.40;;;;;;;;;;103588;1293;545126;-68
2023/12/24 11:25:16;;;;;;;4.90;2.20;;;;;;;;;;103574;1292;544858;-69
2023/12/24 11:28:35;;;;;;;7.10;3.60;;;;;;;;;;103966;1296;545041;-70
2023/12/24 11:32:24;;;;;;;5.90;2.60;;;;;;;;;;103753;1292;545095;-70
2023/12/24 11:35:53;;;;;;;15.70;8.90;;;;;;;;;;103625;1301;545150;-70
2023/12/24 11:39:27;;;;;;;5.60;2.70;;;;;;;;;;104296;1282;545449;-70
2023/12/24 11:43:06;;;;;;;9.70;7.10;;;;;;;;;;103464;1295;546429;-71
2023/12/24 11:46:42;;;;;;;14.10;10.50;;;;;;;;;;103797;1292;545362;-70
2023/12/24 11:50:19;;;;;;;10.30;6.60;;;;;;;;;;103606;1292;544920;-72
2023/12/24 11:54:00;;;;;;;9.70;5.00;;;;;;;;;;103687;1292;545078;-71
2023/12/24 11:57:34;;;;;;;7.10;3.10;;;;;;;;;;104146;1285;545206;-72
2023/12/24 12:01:11;;;;;;;8.10;3.20;;;;;;;;;;103606;1292;545672;-68
2023/12/24 12:04:49;;;;;;;6.70;2.50;;;;;;;;;;103568;1295;545024;-71
2023/12/24 12:08:28;;;;;;;7.30;3.10;;;;;;;;;;103754;1295;545020;-71
2023/12/24 12:12:03;;;;;;;8.20;3.60;;;;;;;;;;103629;1291;545217;-71
2023/12/24 12:15:41;;;;;;;6.60;2.40;;;;;;;;;;103886;1292;545095;-70
2023/12/24 12:19:19;;;;;;;19.70;10.90;;;;;;;;;;104070;1293;545105;-72
2023/12/24 12:22:56;;;;;;;14.10;7.60;;;;;;;;;;103523;1292;545143;-72
2023/12/24 12:26:34;;;;;;;26.10;18.90;;;;;;;;;;103501;1295;545734;-73
2023/12/24 12:30:11;;;;;;;60.10;37.30;;;;;;;;;;103736;1291;545789;-71
2023/12/24 12:33:48;;;;;;;14.30;9.50;;;;;;;;;;103431;1293;545573;-71
2023/12/24 12:37:27;;;;;;;14.60;12.10;;;;;;;;;;104000;1292;544817;-72
2023/12/24 12:41:05;;;;;;;13.60;10.30;;;;;;;;;;103566;1291;545220;-72
2023/12/24 12:45:00;;;;;;;9.50;7.30;;;;;;;;;;103449;1295;545283;-71
2023/12/24 12:48:18;;;;;;;8.30;5.00;;;;;;;;;;103762;1289;545866;-72
2023/12/24 12:51:55;;;;;;;11.50;7.30;;;;;;;;;;103888;1289;545894;-71
2023/12/24 12:55:33;;;;;;;8.20;3.80;;;;;;;;;;104011;1289;545120;-71
2023/12/24 12:59:25;;;;;;;7.60;4.30;;;;;;;;;;103728;1295;545025;-70
2023/12/24 13:02:49;;;;;;;6.70;3.10;;;;;;;;;;103803;1289;545757;-74
2023/12/24 13:06:26;;;;;;;5.80;2.30;;;;;;;;;;103690;1295;545413;-69
2023/12/24 13:10:03;;;;;;;6.40;2.50;;;;;;;;;;103667;1291;544857;-69
2023/12/24 13:13:40;;;;;;;7.00;2.30;;;;;;;;;;103855;1289;545128;-71
2023/12/24 13:17:24;;;;;;;6.30;2.60;;;;;;;;;;103720;1290;546036;-71
2023/12/24 13:20:59;;;;;;;6.90;2.10;;;;;;;;;;103703;1289;545806;-71
2023/12/24 13:24:33;;;;;;;4.90;2.00;;;;;;;;;;103566;1291;544874;-72
2023/12/24 13:28:11;;;;;;;5.90;2.10;;;;;;;;;;103629;1292;544876;-73
2023/12/24 13:31:48;;;;;;;5.50;2.00;;;;;;;;;;104600;1289;546330;-71
2023/12/24 13:35:26;;;;;;;5.60;2.10;;;;;;;;;;103849;1289;544973;-72
2023/12/24 13:39:03;;;;;;;7.90;2.90;;;;;;;;;;103858;1289;544893;-70
2023/12/24 13:42:41;;;;;;;10.30;4.10;;;;;;;;;;103770;1294;545884;-73
2023/12/24 13:46:20;;;;;;;11.30;4.70;;;;;;;;;;103574;1295;544922;-73
2023/12/24 13:49:58;;;;;;;8.90;3.70;;;;;;;;;;103843;1293;545371;-71
2023/12/24 13:53:33;;;;;;;7.30;2.90;;;;;;;;;;103561;1291;545309;-72
2023/12/24 13:57:10;;;;;;;8.20;3.20;;;;;;;;;;103639;1294;544805;-72
2023/12/24 14:00:44;;;;;;;7.60;3.20;;;;;;;;;;103841;1289;545837;-72
2023/12/24 14:04:25;;;;;;;8.80;4.30;;;;;;;;;;103509;1293;545766;-72
2023/12/24 14:08:03;;;;;;;7.10;3.10;;;;;;;;;;103448;1294;545144;-72
2023/12/24 14:11:40;;;;;;;7.70;2.90;;;;;;;;;;103657;1292;544995;-72
2023/12/24 14:15:18;;;;;;;10.50;5.00;;;;;;;;;;103828;1289;544863;-73
2023/12/24 14:18:55;;;;;;;12.30;6.50;;;;;;;;;;104032;1290;545637;-70
2023/12/24 14:22:33;;;;;;;34.50;18.70;;;;;;;;;;103698;1292;545283;-71
2023/12/24 14:26:10;;;;;;;13.90;7.00;;;;;;;;;;103594;1291;544852;-72
2023/12/24 14:29:47;;;;;;;8.00;3.60;;;;;;;;;;103822;1288;545064;-72
2023/12/24 14:33:25;;;;;;;7.80;3.80;;;;;;;;;;103873;1288;545044;-68
2023/12/24 14:37:02;;;;;;;8.80;4.30;;;;;;;;;;103477;1298;545724;-73
2023/12/24 14:40:40;;;;;;;11.40;5.50;;;;;;;;;;104166;1286;544819;-71
2023/12/24 14:44:17;;;;;;;18.70;10.00;;;;;;;;;;103499;1295;545104;-72
2023/12/24 14:47:55;;;;;;;20.00;11.50;;;;;;;;;;103611;1297;544821;-72
2023/12/24 14:51:32;;;;;;;25.40;17.00;;;;;;;;;;103994;1289;545593;-71
2023/12/24 14:55:10;;;;;;;14.10;9.50;;;;;;;;;;103534;1292;546096;-74
2023/12/24 14:58:47;;;;;;;11.00;7.50;;;;;;;;;;103607;1292;545064;-70
2023/12/24 15:02:25;;;;;;;9.00;5.00;;;;;;;;;;103895;1292;545456;-73
2023/12/24 15:06:02;;;;;;;7.00;3.60;;;;;;;;;;103581;1293;545051;-72
2023/12/24 15:09:40;;;;;;;6.40;2.60;;;;;;;;;;103573;1292;544959;-69
2023/12/24 15:13:17;;;;;;;4.50;2.00;;;;;;;;;;103591;1292;545100;-72
2023/12/24 15:16:54;;;;;;;6.40;2.70;;;;;;;;;;104266;1286;544807;-74
2023/12/24 15:20:31;;;;;;;5.90;2.60;;;;;;;;;;103625;1292;545224;-69
2023/12/24 15:24:11;;;;;;;7.00;3.10;;;;;;;;;;103606;1292;545686;-70
2023/12/24 15:27:43;;;;;;;5.40;2.10;;;;;;;;;;103747;1291;545165;-73
2023/12/24 15:31:20;;;;;;;5.60;2.50;;;;;;;;;;103898;1292;545841;-71
2023/12/24 15:35:02;;;;;;;6.50;2.60;;;;;;;;;;103589;1292;544822;-71
2023/12/24 15:38:39;;;;;;;6.50;2.20;;;;;;;;;;104017;1301;544859;-71
2023/12/24 15:42:17;;;;;;;7.80;3.30;;;;;;;;;;103745;1292;545357;-69
2023/12/24 15:45:53;;;;;;;8.40;4.10;;;;;;;;;;103642;1292;545685;-73
2023/12/24 15:49:32;;;;;;;10.30;4.80;;;;;;;;;;103618;1298;544841;-74
2023/12/24 15:53:09;;;;;;;9.00;3.90;;;;;;;;;;103690;1292;545535;-68
2023/12/24 15:56:47;;;;;;;10.60;6.10;;;;;;;;;;103545;1292;546142;-74
2023/12/24 16:00:20;;;;;;;7.60;3.30;;;;;;;;;;103516;1292;545583;-72
2023/12/24 16:04:01;;;;;;;7.50;3.00;;;;;;;;;;103736;1290;544877;-73
2023/12/24 16:07:39;;;;;;;15.80;7.90;;;;;;;;;;103614;1292;545047;-73
2023/12/24 16:11:12;;;;;;;11.80;7.50;;;;;;;;;;103860;1290;545501;-73
2023/12/24 16:14:54;;;;;;;6.00;2.50;;;;;;;;;;103603;1292;544709;-72
2023/12/24 16:18:31;;;;;;;7.00;3.70;;;;;;;;;;103864;1289;545032;-72
2023/12/24 16:22:08;;;;;;;5.90;2.40;;;;;;;;;;103967;1289;545277;-72
2023/12/24 16:25:46;;;;;;;6.00;3.20;;;;;;;;;;103656;1292;545344;-73
2023/12/24 16:29:26;;;;;;;6.80;3.30;;;;;;;;;;103665;1289;545031;-74
2023/12/24 16:33:01;;;;;;;6.60;3.00;;;;;;;;;;103781;1289;544878;-71
2023/12/24 16:36:40;;;;;;;4.20;1.70;;;;;;;;;;103625;1295;545258;-73
2023/12/24 16:40:16;;;;;;;5.00;1.60;;;;;;;;;;103695;1295;545175;-72
2023/12/24 16:43:54;;;;;;;6.50;2.80;;;;;;;;;;103752;1289;544991;-71
2023/12/24 16:47:27;;;;;;;4.80;2.00;;;;;;;;;;104125;1289;545197;-72
2023/12/24 16:51:16;;;;;;;11.80;6.00;;;;;;;;;;103790;1292;545322;-75
2023/12/24 16:54:46;;;;;;;5.10;2.10;;;;;;;;;;103628;1292;544938;-72
2023/12/24 16:58:23;;;;;;;5.40;2.40;;;;;;;;;;103904;1288;545241;-73
2023/12/24 17:02:01;;;;;;;5.50;2.60;;;;;;;;;;103677;1291;545126;-72
2023/12/24 17:05:38;;;;;;;7.70;3.90;;;;;;;;;;103929;1291;545031;-74
2023/12/24 17:09:16;;;;;;;7.40;3.10;;;;;;;;;;103836;1289;545293;-73
2023/12/24 17:12:53;;;;;;;7.80;3.30;;;;;;;;;;103587;1292;545044;-72
2023/12/24 17:16:31;;;;;;;8.60;4.80;;;;;;;;;;103999;1291;545032;-73
2023/12/24 17:20:08;;;;;;;8.20;3.80;;;;;;;;;;103838;1289;545223;-71
2023/12/24 17:23:46;;;;;;;6.90;2.80;;;;;;;;;;103624;1292;545146;-72
2023/12/24 17:27:23;;;;;;;13.80;6.30;;;;;;;;;;104448;1283;545005;-72
2023/12/24 17:31:01;;;;;;;9.60;4.70;;;;;;;;;;103843;1289;544853;-74
2023/12/24 17:34:39;;;;;;;7.30;3.20;;;;;;;;;;103881;1292;545284;-72
2023/12/24 17:38:12;;;;;;;7.70;2.90;;;;;;;;;;103948;1290;545541;-72
2023/12/24 17:41:53;;;;;;;7.40;3.20;;;;;;;;;;103638;1292;545291;-73
2023/12/24 17:45:26;;;;;;;15.50;7.70;;;;;;;;;;104165;1289;545549;-73
2023/12/24 17:49:08;;;;;;;10.40;4.70;;;;;;;;;;103875;1290;545217;-72
2023/12/24 17:52:45;;;;;;;11.00;5.30;;;;;;;;;;104036;1286;545120;-73
2023/12/24 17:56:19;;;;;;;8.90;4.10;;;;;;;;;;103816;1299;544866;-73
2023/12/24 18:00:04;;;;;;;6.60;3.10;;;;;;;;;;103815;1290;544822;-73
2023/12/24 18:03:38;;;;;;;8.20;3.50;;;;;;;;;;103777;1289;545503;-72
2023/12/24 18:07:15;;;;;;;9.40;5.10;;;;;;;;;;103593;1292;545687;-72
2023/12/24 18:10:53;;;;;;;6.40;2.70;;;;;;;;;;103753;1289;546278;-74
2023/12/24 18:14:30;;;;;;;6.50;2.50;;;;;;;;;;103750;1289;545350;-73
2023/12/24 18:18:07;;;;;;;6.10;2.70;;;;;;;;;;103724;1295;545050;-74
2023/12/24 18:21:45;;;;;;;6.90;3.00;;;;;;;;;;103602;1295;545143;-72
2023/12/24 18:25:22;;;;;;;23.50;9.70;;;;;;;;;;103554;1300;545409;-74
2023/12/24 18:29:00;;;;;;;6.10;2.80;;;;;;;;;;103783;1292;545953;-74
2023/12/24 18:32:37;;;;;;;6.30;2.60;;;;;;;;;;103576;1292;545398;-72
2023/12/24 18:36:17;;;;;;;6.60;2.90;;;;;;;;;;103738;1295;545132;-74
2023/12/24 18:39:57;;;;;;;11.40;6.60;;;;;;;;;;103767;1295;545087;-71
2023/12/24 18:43:35;;;;;;;12.40;5.20;;;;;;;;;;103735;1295;544923;-71
2023/12/24 18:47:12;;;;;;;10.60;4.00;;;;;;;;;;103964;1292;545524;-73
2023/12/24 18:50:50;;;;;;;12.30;5.10;;;;;;;;;;103605;1293;545240;-72
2023/12/24 18:54:27;;;;;;;8.70;3.50;;;;;;;;;;103749;1295;545158;-73
2023/12/24 18:58:05;;;;;;;15.90;7.30;;;;;;;;;;103950;1289;545612;-72
2023/12/24 19:01:42;;;;;;;15.60;6.50;;;;;;;;;;103613;1292;544786;-71
2023/12/24 19:05:20;;;;;;;10.30;3.40;;;;;;;;;;103596;1292;545308;-72
2023/12/24 19:08:58;;;;;;;12.60;4.80;;;;;;;;;;104005;1292;545614;-73
2023/12/24 19:12:34;;;;;;;11.30;4.30;;;;;;;;;;103828;1288;545471;-72
2023/12/24 19:16:15;;;;;;;10.40;3.80;;;;;;;;;;104170;1291;544950;-73
2023/12/24 19:19:50;;;;;;;9.30;3.80;;;;;;;;;;103648;1292;544833;-72
2023/12/24 19:23:27;;;;;;;13.90;6.10;;;;;;;;;;103848;1288;544799;-72
2023/12/24 19:27:06;;;;;;;9.10;3.20;;;;;;;;;;104372;1285;544702;-73
2023/12/24 19:30:42;;;;;;;11.70;5.30;;;;;;;;;;103626;1293;544893;-71
2023/12/24 19:34:19;;;;;;;12.60;5.10;;;;;;;;;;103489;1302;545808;-74
2023/12/24 19:37:56;;;;;;;18.60;8.30;;;;;;;;;;103850;1292;545254;-72
2023/12/24 19:41:34;;;;;;;21.00;6.80;;;;;;;;;;103632;1294;545528;-74
2023/12/24 19:45:12;;;;;;;11.00;4.30;;;;;;;;;;103623;1305;545302;-71
2023/12/24 19:48:49;;;;;;;9.00;3.70;;;;;;;;;;103909;1289;544915;-71
2023/12/24 19:52:27;;;;;;;16.10;7.30;;;;;;;;;;103630;1292;545115;-72
2023/12/24 19:56:05;;;;;;;15.60;6.90;;;;;;;;;;104005;1289;545117;-71
2023/12/24 19:59:42;;;;;;;11.50;5.20;;;;;;;;;;103805;1291;545226;-70
2023/12/24 20:03:19;;;;;;;8.80;3.50;;;;;;;;;;103539;1295;545143;-72
2023/12/24 20:06:58;;;;;;;8.50;3.40;;;;;;;;;;103698;1289;545175;-72
2023/12/24 20:10:34;;;;;;;16.90;7.20;;;;;;;;;;104002;1290;545113;-71
2023/12/24 20:14:11;;;;;;;19.10;8.20;;;;;;;;;;103874;1289;544924;-72
2023/12/24 20:17:50;;;;;;;8.40;2.70;;;;;;;;;;104340;1285;545848;-72
2023/12/24 20:21:26;;;;;;;7.80;2.70;;;;;;;;;;103832;1288;544853;-71
2023/12/24 20:25:04;;;;;;;5.80;2.50;;;;;;;;;;103700;1292;545005;-74
2023/12/24 20:28:37;;;;;;;5.90;2.30;;;;;;;;;;103919;1292;544740;-72
2023/12/24 20:32:23;;;;;;;3.80;1.30;;;;;;;;;;103601;1292;545116;-73
2023/12/24 20:35:56;;;;;;;4.10;1.50;;;;;;;;;;103603;1297;545087;-73
2023/12/24 20:39:34;;;;;;;3.00;1.20;;;;;;;;;;103874;1292;544899;-72
2023/12/24 20:43:13;;;;;;;5.60;1.90;;;;;;;;;;103537;1290;544890;-73
2023/12/24 20:46:48;;;;;;;8.50;3.60;;;;;;;;;;103855;1289;545219;-72
2023/12/24 20:50:26;;;;;;;11.30;4.90;;;;;;;;;;103749;1292;545817;-72
2023/12/24 20:54:05;;;;;;;10.30;3.70;;;;;;;;;;103584;1291;544969;-72
2023/12/24 20:57:41;;;;;;;14.40;4.70;;;;;;;;;;104065;1289;544830;-73